Strona główna
METAR-TAF:

METAR-TAF

Lotnisko :

Yankton, Dakota Południowa, Stany Zjednoczone

Szerokość geograficzna: 42-55N, Długość geograficzna: 097-23W, wysokość: 398 m

Aktualna obserwacja pogody

Raport powstał 46 minut temu, godzina 02:56 UTC
Wiatr 5 kt od zachodnio-południowy zachód
Temperatura -10°C
Wilgotność 85%
Ciśnienie 1016 hPa
Widzialność: 16.1 km
Zachmurzenie całkowite na wysokości 8000 ft

METAR: KYKN 100256Z AUTO 24005KT 10SM OVC080 M10/M12 A2999 RMK AO2 SLP195 T11001122 58005 FZRANO

czas: 21:42 (03:42 UTC)


TAF: brakujący

Obserwacja i prognoza pogody dla ponad 4000 lotnisk (raport METAR i TAF).

Dostępne stacje oznaczono żółtymi i czerwonymi punktami na mapie.

Najedź kursorem aby zobaczyć nazwę stacji.

Kliknij aby zobaczyć obserwacje i prognozy pogody.

Aby zmienić mapę: kliknij na zielony przycisk z czarnym krzyżykiem, aby powiększyć; na zielony przycisk z myślnikiem, aby pomniejszyć; na zielone strzałki, aby przejść do map sąsiednich.


METAR-TAF: